createdAt,value
2023-05-19T00:00:37.626Z,48.34
2023-05-19T00:01:37.803Z,48.35
2023-05-19T00:02:37.792Z,48.34
2023-05-19T00:03:37.861Z,48.35
2023-05-19T00:04:37.850Z,48.34
2023-05-19T00:05:37.939Z,48.33
2023-05-19T00:06:37.985Z,48.35
2023-05-19T00:07:38.024Z,48.32
2023-05-19T00:08:38.091Z,48.35
2023-05-19T00:09:38.633Z,48.32
2023-05-19T00:10:38.202Z,48.35
2023-05-19T00:11:38.286Z,48.34
2023-05-19T00:12:38.312Z,48.33
2023-05-19T00:13:38.363Z,48.34
2023-05-19T00:14:38.426Z,48.31
2023-05-19T00:15:38.548Z,48.34
2023-05-19T00:16:38.616Z,48.33
2023-05-19T00:17:38.623Z,48.32
2023-05-19T00:18:38.675Z,48.32
2023-05-19T00:19:39.637Z,48.34
2023-05-19T00:20:38.766Z,48.35
2023-05-19T00:21:38.841Z,48.32
2023-05-19T00:22:38.867Z,48.33
2023-05-19T00:23:38.924Z,48.33
2023-05-19T00:24:39.626Z,48.33
2023-05-19T00:25:39.169Z,48.30
2023-05-19T00:26:39.087Z,48.33
2023-05-19T00:27:39.133Z,48.31
2023-05-19T00:28:39.192Z,48.32
2023-05-19T00:29:39.242Z,48.32
2023-05-19T00:30:39.306Z,48.31
2023-05-19T00:31:39.394Z,48.33
2023-05-19T00:32:39.456Z,48.33
2023-05-19T00:33:39.451Z,48.32
2023-05-19T00:34:39.509Z,48.29
2023-05-19T00:35:39.632Z,48.33
2023-05-19T00:36:39.615Z,48.32
2023-05-19T00:37:39.677Z,48.32
2023-05-19T00:38:39.724Z,48.32
2023-05-19T00:39:39.785Z,48.30
2023-05-19T00:40:39.832Z,48.31
2023-05-19T00:41:40.147Z,48.30
2023-05-19T00:42:39.979Z,48.32
2023-05-19T00:43:40.001Z,48.30
2023-05-19T00:44:40.044Z,48.31
2023-05-19T00:45:40.109Z,48.30
2023-05-19T00:46:40.169Z,48.31
2023-05-19T00:47:40.267Z,48.31
2023-05-19T00:48:40.258Z,48.31
2023-05-19T00:49:40.320Z,48.29
2023-05-19T00:50:40.367Z,48.29
2023-05-19T00:51:40.431Z,48.29
2023-05-19T00:52:40.481Z,48.31
2023-05-19T00:53:40.539Z,48.31
2023-05-19T00:54:40.587Z,48.27
2023-05-19T00:55:40.651Z,48.30
2023-05-19T00:56:40.708Z,48.29
2023-05-19T00:57:40.783Z,48.32
2023-05-19T00:58:41.643Z,48.29
2023-05-19T00:59:40.883Z,48.27
2023-05-19T01:00:41.030Z,48.29
2023-05-19T01:01:41.009Z,48.28
2023-05-19T01:02:41.115Z,48.28
2023-05-19T01:03:41.184Z,48.31
2023-05-19T01:04:41.151Z,48.30
2023-05-19T01:05:41.266Z,48.28
2023-05-19T01:06:41.265Z,48.28
2023-05-19T01:07:41.364Z,48.27
2023-05-19T01:08:41.375Z,48.24
2023-05-19T01:09:41.427Z,48.27
2023-05-19T01:10:41.488Z,48.28
2023-05-19T01:11:41.545Z,48.29
2023-05-19T01:12:41.598Z,48.27
2023-05-19T01:13:42.291Z,48.28
2023-05-19T01:14:41.719Z,48.28
2023-05-19T01:15:41.793Z,48.27
2023-05-19T01:16:41.915Z,48.29
2023-05-19T01:17:41.894Z,48.28
2023-05-19T01:18:41.960Z,48.30
2023-05-19T01:19:41.986Z,48.28
2023-05-19T01:20:42.045Z,48.30
2023-05-19T01:21:42.105Z,48.30
2023-05-19T01:22:42.149Z,48.31
2023-05-19T01:23:42.237Z,48.31
2023-05-19T01:24:42.258Z,48.28
2023-05-19T01:25:43.158Z,48.29
2023-05-19T01:26:42.372Z,48.31
2023-05-19T01:27:42.424Z,48.30
2023-05-19T01:28:42.476Z,48.29
2023-05-19T01:29:42.572Z,48.33
2023-05-19T01:30:42.571Z,48.33
2023-05-19T01:31:42.687Z,48.31
2023-05-19T01:32:42.711Z,48.28
2023-05-19T01:33:42.712Z,48.33
2023-05-19T01:34:42.765Z,48.33
2023-05-19T01:35:42.814Z,48.33
2023-05-19T01:36:42.860Z,48.30
2023-05-19T01:37:42.912Z,48.32
2023-05-19T01:38:42.960Z,48.31
2023-05-19T01:39:43.040Z,48.31
2023-05-19T01:40:43.062Z,48.32
2023-05-19T01:41:43.114Z,48.32
2023-05-19T01:42:43.155Z,48.30
2023-05-19T01:43:43.215Z,48.31
2023-05-19T01:44:43.262Z,48.30
2023-05-19T01:45:43.337Z,48.31
2023-05-19T01:46:43.384Z,48.29
2023-05-19T01:47:43.461Z,48.31
2023-05-19T01:48:43.448Z,48.30
2023-05-19T01:49:43.497Z,48.29
2023-05-19T01:50:43.546Z,48.31
2023-05-19T01:51:43.586Z,48.29
2023-05-19T01:52:43.648Z,48.27
2023-05-19T01:53:43.680Z,48.28
2023-05-19T01:54:43.717Z,48.28
2023-05-19T01:55:43.761Z,48.27
2023-05-19T01:56:43.812Z,48.27
2023-05-19T01:57:43.918Z,48.28
2023-05-19T01:58:43.913Z,48.26
2023-05-19T01:59:43.946Z,48.26
2023-05-19T02:00:43.979Z,48.24
2023-05-19T02:01:44.060Z,48.23
2023-05-19T02:02:44.196Z,48.27
2023-05-19T02:03:44.102Z,48.22
2023-05-19T02:04:44.284Z,48.23
2023-05-19T02:05:44.177Z,48.21
2023-05-19T02:06:44.214Z,48.24
2023-05-19T02:07:44.249Z,48.23
2023-05-19T02:08:44.323Z,48.22
2023-05-19T02:09:44.313Z,48.19
2023-05-19T02:10:44.351Z,48.19
2023-05-19T02:11:44.405Z,48.21
2023-05-19T02:12:44.451Z,48.19
2023-05-19T02:13:44.493Z,48.17
2023-05-19T02:14:44.592Z,48.20
2023-05-19T02:15:44.569Z,48.19
2023-05-19T02:16:44.601Z,48.19
2023-05-19T02:17:44.654Z,48.18
2023-05-19T02:18:44.715Z,48.21
2023-05-19T02:19:44.723Z,48.16
2023-05-19T02:20:44.768Z,48.18
2023-05-19T02:21:44.794Z,48.15
2023-05-19T02:22:44.840Z,48.17
2023-05-19T02:23:44.869Z,48.19
2023-05-19T02:24:44.956Z,48.19
2023-05-19T02:25:44.962Z,48.19
2023-05-19T02:26:44.986Z,48.17
2023-05-19T02:27:45.022Z,48.18
2023-05-19T02:28:45.079Z,48.18
2023-05-19T02:29:45.114Z,48.18
2023-05-19T02:30:45.153Z,48.18
2023-05-19T02:31:45.195Z,48.19
2023-05-19T02:32:45.269Z,48.18
2023-05-19T02:33:46.186Z,48.16
2023-05-19T02:34:45.250Z,48.19
2023-05-19T02:35:45.280Z,48.19
2023-05-19T02:36:45.336Z,48.15
2023-05-19T02:37:45.347Z,48.16
2023-05-19T02:38:45.391Z,48.21
2023-05-19T02:39:45.421Z,48.16
2023-05-19T02:40:45.475Z,48.18
2023-05-19T02:41:45.513Z,48.17
2023-05-19T02:42:45.525Z,48.15
2023-05-19T02:43:45.578Z,48.15
2023-05-19T02:44:45.606Z,48.14
2023-05-19T02:45:45.637Z,48.16
2023-05-19T02:46:45.877Z,48.15
2023-05-19T02:47:45.719Z,48.16
2023-05-19T02:48:45.738Z,48.14
2023-05-19T02:49:46.697Z,48.11
2023-05-19T02:50:45.806Z,48.09
2023-05-19T02:51:46.200Z,48.17
2023-05-19T02:52:45.901Z,48.11
2023-05-19T02:53:45.961Z,48.13
2023-05-19T02:54:45.988Z,48.11
2023-05-19T02:55:46.206Z,48.11
2023-05-19T02:56:46.065Z,48.09
2023-05-19T02:57:46.103Z,48.06
2023-05-19T02:58:46.144Z,48.07
2023-05-19T02:59:46.177Z,48.09
2023-05-19T03:00:47.191Z,48.07
2023-05-19T03:01:46.310Z,48.05
2023-05-19T03:02:46.368Z,48.08
2023-05-19T03:03:46.459Z,48.05
2023-05-19T03:04:46.497Z,48.05
2023-05-19T03:05:46.428Z,48.06
2023-05-19T03:06:46.467Z,48.04
2023-05-19T03:07:46.500Z,48.02
2023-05-19T03:08:46.555Z,48.05
2023-05-19T03:09:46.566Z,48.03
2023-05-19T03:10:46.621Z,48.03
2023-05-19T03:11:46.659Z,48.03
2023-05-19T03:12:46.680Z,48.01
2023-05-19T03:13:46.710Z,48.03
2023-05-19T03:14:46.748Z,48.02
2023-05-19T03:15:46.813Z,48.03
2023-05-19T03:16:46.990Z,48.03
2023-05-19T03:17:46.977Z,48.02
2023-05-19T03:18:46.982Z,48.02
2023-05-19T03:19:47.031Z,48.03
2023-05-19T03:20:47.094Z,48.02
2023-05-19T03:21:47.170Z,48.01
2023-05-19T03:22:47.213Z,48.01
2023-05-19T03:23:47.279Z,48.00
2023-05-19T03:24:47.356Z,48.04
2023-05-19T03:25:47.420Z,47.97
2023-05-19T03:26:47.505Z,47.99
2023-05-19T03:27:47.560Z,48.00
2023-05-19T03:28:47.613Z,48.02
2023-05-19T03:29:47.652Z,47.99
2023-05-19T03:30:47.715Z,47.99
2023-05-19T03:31:47.777Z,48.00
2023-05-19T03:32:48.042Z,48.02
2023-05-19T03:33:47.901Z,47.99
2023-05-19T03:34:47.970Z,48.00
2023-05-19T03:35:48.017Z,48.00
2023-05-19T03:36:48.069Z,47.98
2023-05-19T03:37:48.135Z,47.98
2023-05-19T03:38:48.203Z,47.99
2023-05-19T03:39:48.263Z,47.99
2023-05-19T03:40:48.309Z,47.99
2023-05-19T03:41:48.420Z,47.97
2023-05-19T03:42:48.373Z,47.99
2023-05-19T03:43:48.400Z,48.01
2023-05-19T03:44:48.456Z,47.97
2023-05-19T03:45:48.510Z,47.96
2023-05-19T03:46:48.534Z,47.98
2023-05-19T03:47:48.646Z,48.00
2023-05-19T03:48:48.595Z,47.97
2023-05-19T03:49:48.695Z,47.97
2023-05-19T03:50:48.678Z,47.99
2023-05-19T03:51:48.741Z,47.98
2023-05-19T03:52:48.840Z,48.00
2023-05-19T03:53:48.935Z,47.99
2023-05-19T03:54:48.917Z,47.99
2023-05-19T03:55:48.943Z,47.98
2023-05-19T03:56:48.973Z,47.98
2023-05-19T03:57:49.007Z,47.99
2023-05-19T03:58:49.109Z,47.97
2023-05-19T03:59:49.118Z,47.98
2023-05-19T04:00:49.146Z,47.97
2023-05-19T04:01:49.193Z,47.98
2023-05-19T04:02:49.313Z,47.99
2023-05-19T04:03:49.283Z,47.99
2023-05-19T04:04:49.391Z,47.96
2023-05-19T04:05:49.390Z,47.97
2023-05-19T04:06:49.446Z,47.97
2023-05-19T04:07:49.486Z,47.95
2023-05-19T04:08:49.604Z,47.95
2023-05-19T04:09:49.653Z,47.94
2023-05-19T04:10:49.610Z,47.94
2023-05-19T04:11:49.651Z,47.93
2023-05-19T04:12:49.679Z,47.94
2023-05-19T04:13:49.731Z,47.96
2023-05-19T04:14:49.787Z,47.97
2023-05-19T04:15:49.938Z,47.94
2023-05-19T04:16:49.986Z,47.95
2023-05-19T04:17:50.119Z,47.94
2023-05-19T04:18:50.240Z,47.93
2023-05-19T04:19:50.228Z,47.95
2023-05-19T04:20:50.306Z,47.95
2023-05-19T04:21:50.392Z,47.98
2023-05-19T04:22:50.455Z,47.93
2023-05-19T04:23:50.541Z,47.92
2023-05-19T04:24:50.676Z,47.92
2023-05-19T04:25:50.759Z,47.94
2023-05-19T04:26:50.758Z,47.94
2023-05-19T04:27:50.834Z,47.96
2023-05-19T04:28:50.898Z,47.93
2023-05-19T04:29:50.970Z,47.94
2023-05-19T04:30:51.080Z,47.93
2023-05-19T04:31:52.098Z,47.94
2023-05-19T04:32:51.257Z,47.96
2023-05-19T04:33:51.110Z,47.94
2023-05-19T04:34:51.165Z,47.93
2023-05-19T04:35:51.171Z,47.94
2023-05-19T04:36:53.335Z,47.94
2023-05-19T04:37:51.280Z,47.93
2023-05-19T04:38:51.350Z,47.93
2023-05-19T04:39:51.434Z,47.94
2023-05-19T04:40:51.540Z,47.94
2023-05-19T04:41:51.624Z,47.94
2023-05-19T04:42:51.704Z,47.93
2023-05-19T04:43:51.794Z,47.91
2023-05-19T04:44:51.946Z,47.93
2023-05-19T04:45:51.968Z,47.93
2023-05-19T04:46:52.084Z,47.92
2023-05-19T04:47:52.207Z,47.93
2023-05-19T04:48:52.245Z,47.88
2023-05-19T04:49:52.307Z,47.90
2023-05-19T04:50:52.392Z,47.92
2023-05-19T04:51:55.558Z,47.91
2023-05-19T04:52:52.497Z,47.92
2023-05-19T04:53:52.535Z,47.90
2023-05-19T04:54:52.572Z,47.91
2023-05-19T04:55:52.670Z,47.93
2023-05-19T04:56:52.633Z,47.92
2023-05-19T04:57:52.666Z,47.92
2023-05-19T04:58:52.669Z,47.91
2023-05-19T04:59:52.698Z,47.88
2023-05-19T05:00:52.722Z,47.90
2023-05-19T05:01:52.828Z,47.88
2023-05-19T05:02:52.832Z,47.88
2023-05-19T05:03:52.869Z,47.90
2023-05-19T05:04:52.846Z,47.90
2023-05-19T05:05:52.884Z,47.90
2023-05-19T05:06:53.316Z,47.90
2023-05-19T05:07:52.943Z,47.87
2023-05-19T05:08:52.977Z,47.90
2023-05-19T05:09:52.990Z,47.87
2023-05-19T05:10:53.068Z,47.87
2023-05-19T05:11:53.044Z,47.87
2023-05-19T05:12:53.135Z,47.86
2023-05-19T05:13:53.103Z,47.85
2023-05-19T05:14:53.132Z,47.85
2023-05-19T05:15:53.195Z,47.87
2023-05-19T05:16:53.372Z,47.86
2023-05-19T05:17:53.257Z,47.82
2023-05-19T05:18:53.269Z,47.87
2023-05-19T05:19:53.254Z,47.84
2023-05-19T05:20:53.275Z,47.85
2023-05-19T05:21:53.317Z,47.81
2023-05-19T05:22:54.244Z,47.85
2023-05-19T05:23:53.437Z,47.80
2023-05-19T05:24:53.508Z,47.83
2023-05-19T05:25:53.606Z,47.85
2023-05-19T05:26:53.692Z,47.80
2023-05-19T05:27:53.772Z,47.83
2023-05-19T05:28:53.867Z,47.83
2023-05-19T05:29:53.938Z,47.79
2023-05-19T05:30:54.045Z,47.79
2023-05-19T05:31:54.087Z,47.82
2023-05-19T05:32:54.257Z,47.80
2023-05-19T05:33:54.250Z,47.80
2023-05-19T05:34:54.326Z,47.78
2023-05-19T05:35:54.430Z,47.78
2023-05-19T05:36:55.253Z,47.77
2023-05-19T05:37:54.590Z,47.77
2023-05-19T05:38:54.659Z,47.80
2023-05-19T05:39:54.756Z,47.80
2023-05-19T05:40:54.846Z,47.77
2023-05-19T05:41:55.005Z,47.80
2023-05-19T05:42:54.999Z,47.79
2023-05-19T05:43:55.074Z,47.77
2023-05-19T05:44:55.135Z,47.77
2023-05-19T05:45:55.231Z,47.78
2023-05-19T05:46:55.316Z,47.79
2023-05-19T05:47:55.416Z,47.75
2023-05-19T05:48:55.479Z,47.80
2023-05-19T05:49:56.254Z,47.75
2023-05-19T05:50:56.260Z,47.75
2023-05-19T05:52:05.571Z,47.76
2023-05-19T05:52:56.737Z,47.76
2023-05-19T05:53:55.759Z,47.77
2023-05-19T05:54:55.775Z,47.74
2023-05-19T05:55:55.801Z,47.75
2023-05-19T05:56:55.821Z,47.75
2023-05-19T05:57:55.841Z,47.76
2023-05-19T05:58:55.866Z,47.76
2023-05-19T05:59:55.910Z,47.75
2023-05-19T06:00:55.919Z,47.75
2023-05-19T06:01:56.044Z,47.74
2023-05-19T06:02:56.164Z,47.73
2023-05-19T06:03:56.188Z,47.74
2023-05-19T06:04:56.295Z,47.71
2023-05-19T06:05:56.454Z,47.70
2023-05-19T06:06:56.440Z,47.70
2023-05-19T06:07:56.546Z,47.72
2023-05-19T06:08:56.684Z,47.70
2023-05-19T06:09:56.719Z,47.71
2023-05-19T06:10:56.806Z,47.70
2023-05-19T06:11:56.913Z,47.69
2023-05-19T06:12:57.003Z,47.69
2023-05-19T06:13:57.075Z,47.66
2023-05-19T06:14:57.795Z,47.65
2023-05-19T06:15:57.801Z,47.67
2023-05-19T06:16:58.325Z,47.66
2023-05-19T06:17:57.436Z,47.67
2023-05-19T06:18:58.360Z,47.68
2023-05-19T06:19:57.586Z,47.67
2023-05-19T06:20:57.674Z,47.67
2023-05-19T06:21:57.779Z,47.64
2023-05-19T06:22:57.865Z,47.65
2023-05-19T06:23:57.962Z,47.63
2023-05-19T06:24:58.064Z,47.65
2023-05-19T06:25:58.176Z,47.61
2023-05-19T06:26:58.244Z,47.62
2023-05-19T06:27:58.335Z,47.63
2023-05-19T06:28:58.437Z,47.61
2023-05-19T06:29:58.517Z,47.61
2023-05-19T06:30:59.306Z,47.61
2023-05-19T06:31:58.771Z,47.60
2023-05-19T06:32:58.846Z,47.62
2023-05-19T06:33:58.872Z,47.60
2023-05-19T06:34:59.053Z,47.59
2023-05-19T06:35:59.074Z,47.56
2023-05-19T06:36:59.161Z,47.60
2023-05-19T06:37:59.241Z,47.60
2023-05-19T06:39:01.330Z,47.56
2023-05-19T06:39:59.330Z,47.58
2023-05-19T06:40:59.391Z,47.58
2023-05-19T06:41:59.405Z,47.55
2023-05-19T06:42:59.396Z,47.56
2023-05-19T06:43:59.412Z,47.57
2023-05-19T06:44:59.434Z,47.56
2023-05-19T06:45:59.449Z,47.50
2023-05-19T06:46:59.578Z,47.52
2023-05-19T06:47:59.532Z,47.53
2023-05-19T06:48:59.511Z,47.51
2023-05-19T06:49:59.523Z,47.54
2023-05-19T06:50:59.547Z,47.48
2023-05-19T06:51:59.632Z,47.51
2023-05-19T06:52:59.596Z,47.50
2023-05-19T06:53:59.594Z,47.48
2023-05-19T06:54:59.618Z,47.44
2023-05-19T06:56:00.364Z,47.45
2023-05-19T06:56:59.653Z,47.46
2023-05-19T06:57:59.695Z,47.45
2023-05-19T06:58:59.718Z,47.44
2023-05-19T06:59:59.721Z,47.47
2023-05-19T07:00:59.741Z,47.46
2023-05-19T07:01:59.862Z,47.46
2023-05-19T07:02:59.884Z,47.46
2023-05-19T07:04:00.063Z,47.43
2023-05-19T07:04:59.831Z,47.44
2023-05-19T07:06:00.835Z,47.42
2023-05-19T07:06:59.867Z,47.42
2023-05-19T07:07:59.890Z,47.40
2023-05-19T07:08:59.905Z,47.41
2023-05-19T07:09:59.939Z,47.41
2023-05-19T07:10:59.944Z,47.38
2023-05-19T07:11:59.972Z,47.43
2023-05-19T07:13:00.050Z,47.41
2023-05-19T07:14:00.183Z,47.40
2023-05-19T07:15:00.228Z,47.39
2023-05-19T07:16:00.351Z,47.40
2023-05-19T07:17:00.363Z,47.39
2023-05-19T07:18:00.563Z,47.40
2023-05-19T07:19:00.607Z,47.39
2023-05-19T07:20:00.627Z,47.38
2023-05-19T07:21:00.714Z,47.37
2023-05-19T07:22:00.806Z,47.39
2023-05-19T07:23:00.886Z,47.38
2023-05-19T07:24:01.016Z,47.37
2023-05-19T07:25:01.047Z,47.33
2023-05-19T07:26:01.126Z,47.35
2023-05-19T07:27:01.307Z,47.33
2023-05-19T07:28:01.297Z,47.36
2023-05-19T07:29:01.390Z,47.36
2023-05-19T07:30:01.463Z,47.36
2023-05-19T07:31:01.562Z,47.34
2023-05-19T07:32:01.647Z,47.37
2023-05-19T07:33:01.736Z,47.35
2023-05-19T07:34:01.803Z,47.37
2023-05-19T07:35:01.892Z,47.34
2023-05-19T07:36:01.959Z,47.35
2023-05-19T07:37:02.037Z,47.35
2023-05-19T07:38:02.110Z,47.35
2023-05-19T07:39:02.202Z,47.34
2023-05-19T07:40:02.271Z,47.35
2023-05-19T07:41:02.350Z,47.34
2023-05-19T07:42:02.434Z,47.34
2023-05-19T07:43:02.525Z,47.34
2023-05-19T07:44:02.560Z,47.32
2023-05-19T07:45:02.636Z,47.32
2023-05-19T07:46:02.754Z,47.30
2023-05-19T07:47:03.303Z,47.27
2023-05-19T07:48:02.888Z,47.27
2023-05-19T07:49:02.905Z,47.27
2023-05-19T07:50:02.998Z,47.28
2023-05-19T07:51:03.056Z,47.24
2023-05-19T07:52:03.137Z,47.25
2023-05-19T07:53:03.248Z,47.22
2023-05-19T07:54:03.264Z,47.25
2023-05-19T07:55:03.319Z,47.21
2023-05-19T07:56:03.386Z,47.20
2023-05-19T07:57:03.458Z,47.24
2023-05-19T07:58:03.525Z,47.24
2023-05-19T07:59:03.611Z,47.21
2023-05-19T08:00:03.666Z,47.17
2023-05-19T08:01:03.714Z,47.19
2023-05-19T08:02:03.918Z,47.19
2023-05-19T08:03:03.855Z,47.17
2023-05-19T08:04:03.994Z,47.19
2023-05-19T08:05:04.042Z,47.19
2023-05-19T08:06:04.038Z,47.19
2023-05-19T08:07:04.810Z,47.18
2023-05-19T08:08:04.157Z,47.22
2023-05-19T08:09:04.212Z,47.20
2023-05-19T08:10:04.287Z,47.20
2023-05-19T08:11:04.329Z,47.17
2023-05-19T08:12:04.401Z,47.23
2023-05-19T08:13:04.460Z,47.20
2023-05-19T08:14:04.524Z,47.19
2023-05-19T08:15:04.581Z,47.18
2023-05-19T08:16:04.703Z,47.20
2023-05-19T08:17:04.701Z,47.20
2023-05-19T08:18:04.807Z,47.20
2023-05-19T08:19:04.857Z,47.17
2023-05-19T08:20:04.883Z,47.18
2023-05-19T08:21:04.939Z,47.18
2023-05-19T08:22:04.992Z,47.19
2023-05-19T08:23:05.049Z,47.19
2023-05-19T08:24:05.114Z,47.18
2023-05-19T08:25:05.990Z,47.16
2023-05-19T08:26:05.247Z,47.16
2023-05-19T08:27:05.296Z,47.17
2023-05-19T08:28:05.374Z,47.16
2023-05-19T08:29:05.417Z,47.16
2023-05-19T08:30:05.495Z,47.15
2023-05-19T08:31:05.547Z,47.14
2023-05-19T08:32:05.584Z,47.13
2023-05-19T08:33:05.658Z,47.12
2023-05-19T08:34:05.695Z,47.11
2023-05-19T08:35:06.322Z,47.13
2023-05-19T08:36:05.799Z,47.12
2023-05-19T08:37:05.859Z,47.09
2023-05-19T08:38:06.839Z,47.08
2023-05-19T08:39:05.958Z,47.11
2023-05-19T08:40:06.011Z,47.08
2023-05-19T08:41:06.050Z,47.06
2023-05-19T08:42:06.169Z,47.06
2023-05-19T08:43:06.179Z,47.06
2023-05-19T08:44:06.224Z,47.06
2023-05-19T08:45:06.261Z,47.06
2023-05-19T08:46:06.321Z,47.06
2023-05-19T08:47:06.449Z,47.04
2023-05-19T08:48:06.398Z,47.02
2023-05-19T08:49:06.425Z,47.01
2023-05-19T08:50:06.471Z,47.03
2023-05-19T08:51:06.528Z,47.00
2023-05-19T08:52:06.570Z,47.00
2023-05-19T08:53:09.363Z,47.02
2023-05-19T08:54:07.639Z,47.04
2023-05-19T08:55:06.666Z,47.01
2023-05-19T08:56:06.666Z,47.02
2023-05-19T08:57:06.690Z,47.03
2023-05-19T08:58:07.327Z,47.03
2023-05-19T08:59:06.727Z,47.03
2023-05-19T09:00:06.752Z,47.02
2023-05-19T09:01:06.811Z,47.01
2023-05-19T09:02:06.783Z,47.01
2023-05-19T09:04:06.881Z,47.00
2023-05-19T09:05:06.861Z,47.01
2023-05-19T09:06:06.911Z,47.02
2023-05-19T09:07:06.895Z,47.01
2023-05-19T09:08:06.898Z,47.02
2023-05-19T09:09:06.920Z,46.99
2023-05-19T09:10:06.945Z,47.00
2023-05-19T09:11:06.967Z,46.97
2023-05-19T09:12:06.981Z,46.98
2023-05-19T09:13:07.051Z,46.96
2023-05-19T09:14:07.016Z,46.98
2023-05-19T09:15:07.015Z,47.00
2023-05-19T09:16:07.100Z,46.97
2023-05-19T09:17:07.156Z,46.97
2023-05-19T09:18:07.128Z,47.00
2023-05-19T09:19:07.132Z,47.00
2023-05-19T09:20:07.109Z,47.03
2023-05-19T09:21:07.125Z,47.01
2023-05-19T09:22:07.156Z,46.97
2023-05-19T09:23:07.130Z,47.02
2023-05-19T09:24:07.156Z,46.99
2023-05-19T09:25:07.193Z,46.98
2023-05-19T09:26:07.325Z,46.99
2023-05-19T09:27:07.192Z,46.98
2023-05-19T09:28:07.202Z,46.96
2023-05-19T09:29:07.262Z,46.95
2023-05-19T09:30:07.273Z,46.97
2023-05-19T09:31:07.248Z,46.97
2023-05-19T09:32:07.300Z,46.94
2023-05-19T09:33:07.293Z,46.96
2023-05-19T09:34:07.274Z,46.95
2023-05-19T09:35:07.287Z,46.97
2023-05-19T09:36:07.277Z,46.94
2023-05-19T09:37:07.292Z,46.96
2023-05-19T09:38:07.308Z,46.96
2023-05-19T09:39:07.327Z,46.97
2023-05-19T09:40:07.356Z,46.95
2023-05-19T09:41:07.393Z,46.96
2023-05-19T09:42:07.419Z,46.94
2023-05-19T09:43:07.446Z,46.95
2023-05-19T09:44:07.508Z,46.96
2023-05-19T09:45:07.509Z,46.94
2023-05-19T09:46:07.779Z,46.93
2023-05-19T09:47:07.581Z,46.93
2023-05-19T09:48:07.715Z,46.94
2023-05-19T09:49:07.636Z,46.91
2023-05-19T09:50:07.661Z,46.91
2023-05-19T09:51:07.705Z,46.96
2023-05-19T09:52:07.719Z,46.92
2023-05-19T09:53:07.828Z,46.95
2023-05-19T09:54:07.769Z,46.95
2023-05-19T09:55:07.788Z,46.95
2023-05-19T09:56:07.826Z,46.94
2023-05-19T09:57:08.816Z,46.93
2023-05-19T09:58:07.925Z,46.97
2023-05-19T09:59:07.918Z,46.96
2023-05-19T10:00:07.924Z,46.93
2023-05-19T10:01:09.012Z,46.93
2023-05-19T10:02:07.984Z,46.94
2023-05-19T10:03:08.043Z,46.92
2023-05-19T10:04:08.037Z,46.91
2023-05-19T10:05:08.109Z,46.91
2023-05-19T10:06:08.104Z,46.91
2023-05-19T10:07:08.171Z,46.92
2023-05-19T10:08:08.158Z,46.93
2023-05-19T10:09:08.178Z,46.93
2023-05-19T10:10:08.864Z,46.91
2023-05-19T10:11:08.243Z,46.93
2023-05-19T10:12:08.278Z,46.90
2023-05-19T10:13:08.302Z,46.91
2023-05-19T10:14:08.331Z,46.92
2023-05-19T10:15:08.364Z,46.93
2023-05-19T10:16:08.433Z,46.96
2023-05-19T10:17:08.418Z,46.93
2023-05-19T10:18:08.512Z,46.95
2023-05-19T10:19:08.504Z,46.92
2023-05-19T10:20:08.480Z,46.92
2023-05-19T10:21:08.515Z,46.94
2023-05-19T10:22:08.533Z,46.94
2023-05-19T10:23:08.555Z,46.94
2023-05-19T10:24:09.027Z,46.90
2023-05-19T10:25:08.607Z,46.89
2023-05-19T10:26:08.626Z,46.88
2023-05-19T10:27:08.645Z,46.89
2023-05-19T10:28:08.727Z,46.85
2023-05-19T10:29:08.708Z,46.90
2023-05-19T10:30:10.826Z,46.88
2023-05-19T10:31:08.747Z,46.87
2023-05-19T10:32:08.808Z,46.88
2023-05-19T10:33:08.783Z,46.88
2023-05-19T10:34:08.795Z,46.87
2023-05-19T10:35:08.801Z,46.88
2023-05-19T10:36:08.814Z,46.88
2023-05-19T10:37:08.829Z,46.89
2023-05-19T10:38:08.848Z,46.84
2023-05-19T10:39:08.852Z,46.85
2023-05-19T10:40:08.872Z,46.84
2023-05-19T10:41:08.911Z,46.83
2023-05-19T10:42:08.905Z,46.83
2023-05-19T10:43:08.911Z,46.83
2023-05-19T10:44:08.917Z,46.84
2023-05-19T10:45:08.928Z,46.83
2023-05-19T10:46:08.997Z,46.81
2023-05-19T10:47:09.016Z,46.80
2023-05-19T10:48:09.000Z,46.82
2023-05-19T10:49:08.985Z,46.81
2023-05-19T10:50:09.013Z,46.79
2023-05-19T10:51:09.043Z,46.81
2023-05-19T10:52:09.037Z,46.82
2023-05-19T10:53:09.046Z,46.81
2023-05-19T10:54:12.111Z,46.81
2023-05-19T10:55:09.060Z,46.84
2023-05-19T10:56:09.059Z,46.82
2023-05-19T10:57:09.073Z,46.84
2023-05-19T10:58:09.080Z,46.82
2023-05-19T10:59:09.089Z,46.79
2023-05-19T11:00:09.106Z,46.80
2023-05-19T11:01:09.166Z,46.80
2023-05-19T11:02:09.222Z,46.81
2023-05-19T11:03:09.156Z,46.80
2023-05-19T11:04:09.182Z,46.78
2023-05-19T11:05:09.207Z,46.80
2023-05-19T11:06:09.243Z,46.79
2023-05-19T11:07:09.187Z,46.79
2023-05-19T11:08:09.243Z,46.77
2023-05-19T11:09:09.185Z,46.79
2023-05-19T11:10:09.206Z,46.78
2023-05-19T11:11:09.207Z,46.80
2023-05-19T11:12:09.219Z,46.79
2023-05-19T11:13:09.240Z,46.79
2023-05-19T11:14:09.241Z,46.83
2023-05-19T11:15:09.248Z,46.78
2023-05-19T11:16:09.310Z,46.79
2023-05-19T11:17:09.272Z,46.81
2023-05-19T11:18:09.424Z,46.83
2023-05-19T11:19:09.374Z,46.85
2023-05-19T11:20:09.291Z,46.81
2023-05-19T11:21:09.417Z,46.85
2023-05-19T11:22:09.358Z,46.85
2023-05-19T11:23:09.403Z,46.84
2023-05-19T11:24:09.342Z,46.86
2023-05-19T11:25:09.345Z,46.84
2023-05-19T11:26:09.346Z,46.85
2023-05-19T11:27:09.377Z,46.86
2023-05-19T11:28:09.384Z,46.84
2023-05-19T11:29:09.493Z,46.86
2023-05-19T11:30:09.527Z,46.84
2023-05-19T11:31:09.500Z,46.86
2023-05-19T11:32:09.443Z,46.85
2023-05-19T11:33:09.499Z,46.84
2023-05-19T11:34:09.490Z,46.86
2023-05-19T11:35:09.473Z,46.85
2023-05-19T11:36:09.465Z,46.85
2023-05-19T11:37:09.487Z,46.84
2023-05-19T11:38:09.533Z,46.87
2023-05-19T11:39:09.515Z,46.85
2023-05-19T11:40:09.570Z,46.85
2023-05-19T11:41:09.565Z,46.87
2023-05-19T11:42:09.578Z,46.87
2023-05-19T11:43:09.581Z,46.87
2023-05-19T11:44:09.595Z,46.87
2023-05-19T11:45:09.609Z,46.86
2023-05-19T11:46:09.682Z,46.87
2023-05-19T11:47:09.642Z,46.86
2023-05-19T11:48:09.754Z,46.87
2023-05-19T11:49:09.682Z,46.85
2023-05-19T11:50:09.692Z,46.89
2023-05-19T11:51:09.700Z,46.88
2023-05-19T11:52:09.725Z,46.89
2023-05-19T11:53:09.738Z,46.89
2023-05-19T11:54:10.407Z,46.88
2023-05-19T11:55:09.791Z,46.89
2023-05-19T11:56:09.766Z,46.91
2023-05-19T11:57:09.784Z,46.89
2023-05-19T11:58:09.881Z,46.89
2023-05-19T11:59:09.820Z,46.89
2023-05-19T12:00:09.827Z,46.87
2023-05-19T12:01:09.904Z,46.87
2023-05-19T12:02:09.884Z,46.91
2023-05-19T12:03:10.159Z,46.89
2023-05-19T12:04:09.923Z,46.88
2023-05-19T12:05:09.936Z,46.90
2023-05-19T12:06:09.917Z,46.88
2023-05-19T12:07:10.009Z,46.88
2023-05-19T12:08:10.062Z,46.86
2023-05-19T12:09:09.934Z,46.86
2023-05-19T12:10:09.954Z,46.85
2023-05-19T12:11:09.973Z,46.88
2023-05-19T12:12:09.984Z,46.84
2023-05-19T12:13:10.476Z,46.82
2023-05-19T12:14:10.010Z,46.84
2023-05-19T12:15:10.105Z,46.84
2023-05-19T12:16:10.031Z,46.82
2023-05-19T12:17:10.039Z,46.81
2023-05-19T12:18:10.067Z,46.84
2023-05-19T12:19:10.147Z,46.80
2023-05-19T12:20:10.058Z,46.80
2023-05-19T12:21:10.135Z,46.83
2023-05-19T12:22:10.079Z,46.81
2023-05-19T12:23:10.105Z,46.79
2023-05-19T12:24:10.087Z,46.82
2023-05-19T12:25:10.094Z,46.80
2023-05-19T12:26:10.113Z,46.80
2023-05-19T12:27:10.138Z,46.78
2023-05-19T12:28:10.126Z,46.78
2023-05-19T12:29:10.133Z,46.76
2023-05-19T12:30:10.226Z,46.79
2023-05-19T12:31:10.175Z,46.78
2023-05-19T12:32:10.287Z,46.78
2023-05-19T12:33:10.184Z,46.78
2023-05-19T12:34:10.169Z,46.78
2023-05-19T12:35:10.175Z,46.78
2023-05-19T12:36:10.238Z,46.78
2023-05-19T12:37:10.206Z,46.79
2023-05-19T12:38:10.290Z,46.79
2023-05-19T12:39:10.216Z,46.80
2023-05-19T12:40:10.285Z,46.78
2023-05-19T12:41:10.241Z,46.79
2023-05-19T12:42:10.269Z,46.80
2023-05-19T12:43:10.271Z,46.82
2023-05-19T12:44:10.417Z,46.79
2023-05-19T12:45:10.316Z,46.80
2023-05-19T12:46:10.334Z,46.80
2023-05-19T12:47:10.313Z,46.80
2023-05-19T12:48:10.401Z,46.79
2023-05-19T12:49:10.343Z,46.78
2023-05-19T12:50:10.555Z,46.78
2023-05-19T12:51:10.370Z,46.81
2023-05-19T12:52:12.889Z,46.79
2023-05-19T12:53:10.464Z,46.81
2023-05-19T12:54:10.385Z,46.79